Time;durP1;ratioP1;P1;durP2;ratioP2;P2;SDS_P1;SDS_P2;PMS_P1;PMS_P2;Temp;Humidity;BMP_temperature;BMP_pressure;BME280_temperature;BME280_humidity;BME280_pressure;Samples;Min_cycle;Max_cycle;Signal;HPM_P1;HPM_P2
2022/09/30 00:00:57;;;;;;;12.52;8.63;;;9.80;99.90;;;;;;5034143;28;20187;-64
2022/09/30 00:03:25;;;;;;;19.30;9.20;;;9.80;99.90;;;;;;5033857;28;20195;-64
2022/09/30 00:05:58;;;;;;;11.70;9.30;;;9.80;99.90;;;;;;5033998;28;20745;-64
2022/09/30 00:08:25;;;;;;;11.80;9.43;;;9.60;99.90;;;;;;5034095;28;20234;-64
2022/09/30 00:11:00;;;;;;;10.15;8.13;;;9.60;99.90;;;;;;5033860;28;20720;-66
2022/09/30 00:13:27;;;;;;;14.18;8.65;;;9.60;99.90;;;;;;5033876;28;20199;-64
2022/09/30 00:15:54;;;;;;;11.00;7.75;;;9.50;99.90;;;;;;5033709;28;20187;-64
2022/09/30 00:18:22;;;;;;;9.50;8.10;;;9.50;99.90;;;;;;5033694;28;20233;-64
2022/09/30 00:20:49;;;;;;;9.48;8.00;;;9.50;99.90;;;;;;5033739;28;20241;-64
2022/09/30 00:23:16;;;;;;;13.52;8.77;;;9.50;99.90;;;;;;5033846;28;20256;-64
2022/09/30 00:25:43;;;;;;;9.60;8.02;;;9.50;99.90;;;;;;5033763;28;20608;-64
2022/09/30 00:28:10;;;;;;;10.85;8.93;;;9.50;99.90;;;;;;5033574;28;20269;-64
2022/09/30 00:30:37;;;;;;;8.27;7.22;;;9.50;99.90;;;;;;5033516;28;20495;-64
2022/09/30 00:33:04;;;;;;;10.80;8.00;;;9.50;99.90;;;;;;5033614;28;20245;-64
2022/09/30 00:35:32;;;;;;;11.75;8.02;;;9.50;99.90;;;;;;5033346;28;20210;-64
2022/09/30 00:37:59;;;;;;;9.00;8.00;;;9.50;99.90;;;;;;5033450;28;20226;-64
2022/09/30 00:40:29;;;;;;;8.85;7.53;;;9.50;99.90;;;;;;5033391;28;20205;-64
2022/09/30 00:42:55;;;;;;;8.60;7.70;;;9.60;99.90;;;;;;5033334;28;20199;-64
2022/09/30 00:45:23;;;;;;;9.23;7.97;;;9.60;99.90;;;;;;5033493;28;20234;-64
2022/09/30 00:47:53;;;;;;;10.13;7.75;;;9.60;99.90;;;;;;5033046;28;20222;-64
2022/09/30 00:50:32;;;;;;;8.68;7.47;;;9.60;99.90;;;;;;5033519;28;20222;-64
2022/09/30 00:53:07;;;;;;;8.20;7.40;;;9.60;99.90;;;;;;5033226;28;20195;-64
2022/09/30 00:55:45;;;;;;;8.35;7.32;;;9.70;99.90;;;;;;5033118;28;20191;-64
2022/09/30 00:58:17;;;;;;;8.93;7.93;;;9.70;99.90;;;;;;5033057;28;20191;-64
2022/09/30 01:00:45;;;;;;;8.25;7.40;;;9.70;99.90;;;;;;5032679;28;20229;-63
2022/09/30 01:03:13;;;;;;;7.63;6.55;;;9.70;99.90;;;;;;5032861;28;20187;-65
2022/09/30 01:05:40;;;;;;;8.07;6.95;;;9.80;99.90;;;;;;5032755;28;20698;-64
2022/09/30 01:08:10;;;;;;;7.97;7.18;;;9.80;99.90;;;;;;5032957;28;20253;-64
2022/09/30 01:10:37;;;;;;;9.30;7.40;;;9.80;99.90;;;;;;5032930;28;20356;-64
2022/09/30 01:13:05;;;;;;;10.93;9.60;;;9.80;99.90;;;;;;5032747;28;20650;-64
2022/09/30 01:16:05;;;;;;;10.95;8.95;;;9.80;99.90;;;;;;5032706;28;20195;-66
2022/09/30 01:18:47;;;;;;;12.55;10.18;;;9.80;99.90;;;;;;5033040;28;20605;-65
2022/09/30 01:21:51;;;;;;;9.15;8.23;;;9.80;99.90;;;;;;5032924;28;20285;-64
2022/09/30 01:24:46;;;;;;;10.30;9.18;;;9.80;99.90;;;;;;5032719;28;20215;-64
2022/09/30 01:27:30;;;;;;;12.45;9.93;;;9.80;99.90;;;;;;5032613;28;20669;-64
2022/09/30 01:30:13;;;;;;;11.68;10.48;;;9.80;99.90;;;;;;5032707;28;20203;-67
2022/09/30 01:33:13;;;;;;;11.10;8.80;;;9.80;99.90;;;;;;5032533;28;20231;-64
2022/09/30 01:35:54;;;;;;;11.40;9.20;;;9.80;99.90;;;;;;5032427;28;20638;-64
2022/09/30 01:38:28;;;;;;;12.45;8.55;;;9.90;99.90;;;;;;5032652;28;20245;-64
2022/09/30 01:41:04;;;;;;;10.27;9.18;;;9.80;99.90;;;;;;5032628;28;20282;-64
2022/09/30 01:43:40;;;;;;;20.77;10.55;;;9.80;99.90;;;;;;5032445;28;20190;-64
2022/09/30 01:46:19;;;;;;;13.00;9.15;;;9.80;99.90;;;;;;5032524;28;20308;-65
2022/09/30 01:48:56;;;;;;;11.50;9.40;;;9.80;99.90;;;;;;5032006;28;20280;-64
2022/09/30 01:51:28;;;;;;;13.57;9.85;;;9.80;99.90;;;;;;5032630;28;20244;-64
2022/09/30 01:54:00;;;;;;;11.60;9.05;;;9.70;99.90;;;;;;5032637;28;20206;-64
2022/09/30 01:56:33;;;;;;;14.32;10.10;;;9.70;99.90;;;;;;5032592;28;20190;-64
2022/09/30 01:59:05;;;;;;;14.05;9.13;;;9.70;99.90;;;;;;5032648;28;20620;-64
2022/09/30 02:01:41;;;;;;;18.73;9.05;;;9.70;99.90;;;;;;5032616;28;20229;-66
2022/09/30 02:04:14;;;;;;;10.63;8.77;;;9.70;99.90;;;;;;5032333;28;20256;-65
2022/09/30 02:06:46;;;;;;;10.32;8.45;;;9.70;99.90;;;;;;5032432;28;20222;-65
2022/09/30 02:09:16;;;;;;;14.95;7.90;;;9.60;99.90;;;;;;5032103;28;20638;-65
2022/09/30 02:11:43;;;;;;;16.25;8.35;;;9.60;99.90;;;;;;5032195;28;20195;-64
2022/09/30 02:14:15;;;;;;;14.43;8.90;;;9.60;99.90;;;;;;5032380;28;20231;-66
2022/09/30 02:16:47;;;;;;;14.50;7.38;;;9.60;99.90;;;;;;5032088;28;20222;-64
2022/09/30 02:19:19;;;;;;;10.15;9.13;;;9.60;99.90;;;;;;5032537;28;20283;-64
2022/09/30 02:21:53;;;;;;;12.68;9.23;;;9.60;99.90;;;;;;5036096;28;20234;-64
2022/09/30 02:24:24;;;;;;;9.02;8.13;;;9.50;99.90;;;;;;5036063;28;20198;-65
2022/09/30 02:26:54;;;;;;;9.27;8.38;;;9.50;99.90;;;;;;5035950;28;20198;-64
2022/09/30 02:29:27;;;;;;;10.48;8.80;;;9.50;99.90;;;;;;5035591;28;20192;-64
2022/09/30 02:31:59;;;;;;;11.65;7.43;;;9.60;99.90;;;;;;5035923;28;20516;-64
2022/09/30 02:34:32;;;;;;;9.48;8.35;;;9.60;99.90;;;;;;5035493;28;20222;-64
2022/09/30 02:37:04;;;;;;;10.95;8.65;;;9.60;99.90;;;;;;5035667;28;20201;-64
2022/09/30 02:39:41;;;;;;;9.90;8.82;;;9.60;99.90;;;;;;5035813;28;20257;-64
2022/09/30 02:42:14;;;;;;;10.38;9.18;;;9.70;99.90;;;;;;5035470;28;20195;-64
2022/09/30 02:44:42;;;;;;;9.00;7.97;;;9.70;99.90;;;;;;5035289;28;20241;-64
2022/09/30 02:47:15;;;;;;;9.50;8.23;;;9.70;99.90;;;;;;5035534;28;20195;-65
2022/09/30 02:49:49;;;;;;;10.90;8.98;;;9.70;99.90;;;;;;5035481;28;20262;-64
2022/09/30 02:52:26;;;;;;;10.60;8.70;;;9.80;99.90;;;;;;5035298;28;20187;-64
2022/09/30 02:55:02;;;;;;;12.15;9.00;;;9.80;99.90;;;;;;5035317;28;20237;-63
2022/09/30 02:57:37;;;;;;;10.13;9.02;;;9.80;99.90;;;;;;5035324;28;20625;-64
2022/09/30 03:00:07;;;;;;;12.48;7.88;;;9.80;99.90;;;;;;5035063;28;20226;-65
2022/09/30 03:02:34;;;;;;;11.80;8.68;;;9.80;99.90;;;;;;5035330;28;20625;-64
2022/09/30 03:05:03;;;;;;;10.63;7.97;;;9.80;99.90;;;;;;5035339;28;20229;-64
2022/09/30 03:07:30;;;;;;;9.35;7.70;;;9.80;99.90;;;;;;5035420;28;20191;-63
2022/09/30 03:09:58;;;;;;;8.48;7.50;;;9.80;99.90;;;;;;5034914;28;20202;-64
2022/09/30 03:12:38;;;;;;;9.40;7.65;;;9.80;99.90;;;;;;5034867;28;20197;-64
2022/09/30 03:15:28;;;;;;;9.68;8.48;;;9.80;99.90;;;;;;5035210;28;20276;-65
2022/09/30 03:18:09;;;;;;;9.05;7.47;;;9.90;99.90;;;;;;5034782;28;21153;-64
2022/09/30 03:20:46;;;;;;;10.73;9.00;;;9.90;99.90;;;;;;5034927;28;20194;-64
2022/09/30 03:24:00;;;;;;;10.80;7.95;;;9.80;99.90;;;;;;5034697;28;20195;-64
2022/09/30 03:26:37;;;;;;;9.73;7.72;;;9.80;99.90;;;;;;5034881;28;20253;-65
2022/09/30 03:29:17;;;;;;;12.10;9.15;;;9.80;99.90;;;;;;5034942;28;20225;-65
2022/09/30 03:31:54;;;;;;;10.00;8.95;;;9.80;99.90;;;;;;5034718;28;20191;-64
2022/09/30 03:34:26;;;;;;;10.40;8.88;;;9.70;99.90;;;;;;5034752;28;20272;-64
2022/09/30 03:37:02;;;;;;;10.07;8.55;;;9.70;99.90;;;;;;5034621;28;20285;-64
2022/09/30 03:39:41;;;;;;;9.30;8.38;;;9.70;99.90;;;;;;5034809;28;20244;-64
2022/09/30 03:42:16;;;;;;;9.45;8.25;;;9.80;99.90;;;;;;5034699;28;20253;-64
2022/09/30 03:44:50;;;;;;;10.88;9.15;;;9.70;99.90;;;;;;5034649;28;20194;-64
2022/09/30 03:47:19;;;;;;;10.15;7.68;;;9.70;99.90;;;;;;5033988;28;20218;-64
2022/09/30 03:49:49;;;;;;;10.45;9.35;;;9.70;99.90;;;;;;4995149;28;20228;-64
2022/09/30 03:52:18;;;;;;;11.60;8.20;;;9.70;99.90;;;;;;4994880;28;20228;-65
2022/09/30 03:54:49;;;;;;;10.50;8.50;;;9.70;99.90;;;;;;4995097;28;20192;-64
2022/09/30 03:57:16;;;;;;;9.93;8.20;;;9.70;99.90;;;;;;4994775;28;20644;-64
2022/09/30 03:59:43;;;;;;;9.85;8.85;;;9.70;99.90;;;;;;4994706;28;20644;-64
2022/09/30 04:02:12;;;;;;;12.00;9.55;;;9.80;99.90;;;;;;4994380;28;20701;-64
2022/09/30 04:04:39;;;;;;;9.15;8.13;;;9.70;99.90;;;;;;4995189;28;20203;-65
2022/09/30 04:07:06;;;;;;;10.45;8.73;;;9.70;99.90;;;;;;4995152;28;20233;-65
2022/09/30 04:09:35;;;;;;;10.60;8.30;;;9.80;99.90;;;;;;4994832;28;20247;-65
2022/09/30 04:12:03;;;;;;;11.02;9.50;;;9.80;99.90;;;;;;4995097;28;20193;-64
2022/09/30 04:14:30;;;;;;;11.73;10.13;;;9.80;99.90;;;;;;4995041;28;20200;-64
2022/09/30 04:16:57;;;;;;;12.65;9.25;;;9.80;99.90;;;;;;4994742;28;20640;-64
2022/09/30 04:19:24;;;;;;;11.70;9.30;;;9.80;99.90;;;;;;4994724;28;20236;-64
2022/09/30 04:21:51;;;;;;;10.63;9.40;;;9.80;99.90;;;;;;4995038;28;20200;-64
2022/09/30 04:24:18;;;;;;;11.38;9.13;;;9.80;99.90;;;;;;4994706;28;20204;-64
2022/09/30 04:26:47;;;;;;;11.77;9.73;;;9.80;99.90;;;;;;4994198;28;20232;-64
2022/09/30 04:29:14;;;;;;;13.38;9.60;;;9.80;99.90;;;;;;4994696;28;20194;-64
2022/09/30 04:31:41;;;;;;;10.82;8.98;;;9.80;99.90;;;;;;4994365;28;20413;-64
2022/09/30 04:34:10;;;;;;;11.02;9.48;;;9.80;99.90;;;;;;4994672;28;20228;-65
2022/09/30 04:36:37;;;;;;;12.50;10.80;;;9.60;99.90;;;;;;4994817;28;20192;-64
2022/09/30 04:39:04;;;;;;;13.35;10.75;;;9.60;99.90;;;;;;4994705;28;20188;-64
2022/09/30 04:41:32;;;;;;;13.23;10.73;;;9.60;99.90;;;;;;4994694;28;20239;-64
2022/09/30 04:44:04;;;;;;;12.77;10.77;;;9.50;99.90;;;;;;4993987;28;20204;-64
2022/09/30 04:46:35;;;;;;;12.02;10.32;;;9.50;99.90;;;;;;4994356;28;20259;-64
2022/09/30 04:49:02;;;;;;;14.05;11.10;;;9.50;99.90;;;;;;5022343;28;20231;-64
2022/09/30 04:51:30;;;;;;;12.13;10.20;;;9.50;99.90;;;;;;5033982;28;20225;-64
2022/09/30 04:53:57;;;;;;;10.70;9.45;;;9.50;99.90;;;;;;5033444;28;20618;-64
2022/09/30 04:56:25;;;;;;;14.13;12.38;;;9.40;99.90;;;;;;5033439;28;20234;-64
2022/09/30 04:58:52;;;;;;;14.98;12.38;;;9.40;99.90;;;;;;5033651;28;20249;-64
2022/09/30 05:01:20;;;;;;;15.35;13.40;;;9.40;99.90;;;;;;5033246;28;20219;-64
2022/09/30 05:03:47;;;;;;;16.17;13.05;;;9.40;99.90;;;;;;5033422;28;20268;-64
2022/09/30 05:06:14;;;;;;;13.40;11.15;;;9.40;99.90;;;;;;5033110;28;20725;-63
2022/09/30 05:08:42;;;;;;;15.27;11.93;;;9.50;99.90;;;;;;5032901;28;20233;-62
2022/09/30 05:11:13;;;;;;;13.98;11.18;;;9.50;99.90;;;;;;5033373;28;20195;-62
2022/09/30 05:13:41;;;;;;;14.75;12.05;;;9.50;99.90;;;;;;5033275;28;20725;-62
2022/09/30 05:16:09;;;;;;;14.70;12.23;;;9.50;99.90;;;;;;5032819;28;20191;-63
2022/09/30 05:18:39;;;;;;;14.73;11.73;;;9.50;99.90;;;;;;5033377;28;20227;-63
2022/09/30 05:21:07;;;;;;;37.33;12.35;;;9.50;99.90;;;;;;5033106;28;20230;-63
2022/09/30 05:23:34;;;;;;;36.85;15.50;;;9.60;99.90;;;;;;5033245;28;20237;-63
2022/09/30 05:26:02;;;;;;;38.03;13.65;;;9.60;99.90;;;;;;5032671;28;20218;-62
2022/09/30 05:28:31;;;;;;;14.57;11.00;;;9.50;99.90;;;;;;5033335;28;20253;-63
2022/09/30 05:30:59;;;;;;;17.55;9.00;;;9.50;99.90;;;;;;5032999;28;20618;-63
2022/09/30 05:33:28;;;;;;;12.63;7.95;;;9.50;99.90;;;;;;5033174;28;20191;-62
2022/09/30 05:35:59;;;;;;;24.77;9.30;;;9.50;99.90;;;;;;5033098;28;20216;-62
2022/09/30 05:38:26;;;;;;;15.15;9.88;;;9.50;99.90;;;;;;5032717;28;20187;-62
2022/09/30 05:40:53;;;;;;;16.30;11.23;;;9.50;99.90;;;;;;5033165;28;20242;-62
2022/09/30 05:43:20;;;;;;;12.98;11.27;;;9.50;99.90;;;;;;5033005;28;20241;-62
2022/09/30 05:45:53;;;;;;;13.90;11.75;;;9.60;99.90;;;;;;5032704;28;20311;-62
2022/09/30 05:48:20;;;;;;;13.23;10.15;;;9.70;99.90;;;;;;5032695;28;20222;-63
2022/09/30 05:50:49;;;;;;;15.10;11.10;;;9.70;99.90;;;;;;5032844;28;20653;-63
2022/09/30 05:53:18;;;;;;;14.45;11.95;;;9.80;99.90;;;;;;5032616;28;20197;-63
2022/09/30 05:55:49;;;;;;;14.30;11.55;;;9.90;99.90;;;;;;5035857;28;20553;-62
2022/09/30 05:58:17;;;;;;;15.48;12.10;;;9.90;99.90;;;;;;5036807;28;20191;-62
2022/09/30 06:00:45;;;;;;;11.93;9.48;;;10.00;99.90;;;;;;5036806;28;20222;-63
2022/09/30 06:03:12;;;;;;;14.02;10.68;;;10.10;99.90;;;;;;5036911;28;20635;-62
2022/09/30 06:05:39;;;;;;;13.98;10.95;;;10.10;99.90;;;;;;5036651;28;20641;-63
2022/09/30 06:08:06;;;;;;;14.25;12.63;;;10.20;99.90;;;;;;5036829;28;20187;-63
2022/09/30 06:10:37;;;;;;;13.98;11.57;;;10.20;99.90;;;;;;5036563;28;20286;-62
2022/09/30 06:13:04;;;;;;;13.05;10.95;;;10.10;99.90;;;;;;5036978;28;20198;-63
2022/09/30 06:15:32;;;;;;;11.77;9.88;;;10.20;99.90;;;;;;5036694;28;20571;-62
2022/09/30 06:17:59;;;;;;;13.73;9.27;;;10.30;99.90;;;;;;5036418;28;20586;-64
2022/09/30 06:20:26;;;;;;;13.10;11.10;;;10.40;99.90;;;;;;5036486;28;20711;-63
2022/09/30 06:22:53;;;;;;;11.75;9.63;;;10.40;99.90;;;;;;5036573;28;20198;-62
2022/09/30 06:25:21;;;;;;;13.95;10.63;;;10.40;99.90;;;;;;5036543;28;20199;-62
2022/09/30 06:27:49;;;;;;;13.43;9.00;;;10.50;99.90;;;;;;5036100;28;20276;-63
2022/09/30 06:30:16;;;;;;;11.65;10.05;;;10.60;99.90;;;;;;5036426;28;20191;-62
2022/09/30 06:32:44;;;;;;;12.27;9.05;;;10.60;99.90;;;;;;5036194;28;20241;-63
2022/09/30 06:35:11;;;;;;;12.18;9.52;;;10.60;99.90;;;;;;5035734;28;20199;-63
2022/09/30 06:37:40;;;;;;;10.40;8.93;;;10.60;99.90;;;;;;5036081;28;20604;-63
2022/09/30 06:40:08;;;;;;;11.05;9.02;;;10.50;99.90;;;;;;5036092;28;20198;-63
2022/09/30 06:42:35;;;;;;;11.90;9.23;;;10.50;99.90;;;;;;5036139;28;20191;-63
2022/09/30 06:45:04;;;;;;;11.98;10.20;;;10.50;99.90;;;;;;5036104;28;20253;-62
2022/09/30 06:47:32;;;;;;;10.63;9.52;;;10.50;99.90;;;;;;5035480;28;20247;-62
2022/09/30 06:49:59;;;;;;;13.00;11.05;;;10.60;99.90;;;;;;5034562;28;20188;-62
2022/09/30 06:52:26;;;;;;;14.45;10.95;;;10.70;99.90;;;;;;5034824;28;20219;-63
2022/09/30 06:54:55;;;;;;;12.88;10.48;;;10.70;99.90;;;;;;5034653;28;20285;-63
2022/09/30 06:57:23;;;;;;;19.38;15.15;;;10.80;99.90;;;;;;5034753;28;20273;-63
2022/09/30 06:59:50;;;;;;;36.08;27.63;;;10.80;99.90;;;;;;5034692;28;20195;-63
2022/09/30 07:02:19;;;;;;;16.88;14.50;;;10.80;99.90;;;;;;5034541;28;20195;-63
2022/09/30 07:04:46;;;;;;;17.77;13.75;;;10.90;99.90;;;;;;5034631;28;20191;-63
2022/09/30 07:07:14;;;;;;;15.30;13.55;;;10.90;99.90;;;;;;5034120;28;20226;-63
2022/09/30 07:09:42;;;;;;;15.77;14.07;;;10.90;99.90;;;;;;5034575;28;20195;-64
2022/09/30 07:12:08;;;;;;;16.70;15.10;;;10.90;99.90;;;;;;5033941;28;20191;-63
2022/09/30 07:14:35;;;;;;;12.60;11.20;;;10.90;99.90;;;;;;5034364;28;20249;-63
2022/09/30 07:17:03;;;;;;;11.63;10.43;;;10.90;99.90;;;;;;5034184;28;20240;-62
2022/09/30 07:19:33;;;;;;;13.50;10.35;;;11.00;99.90;;;;;;5034491;28;20511;-63
2022/09/30 07:22:26;;;;;;;11.48;10.20;;;11.10;99.90;;;;;;5034447;28;20198;-62
2022/09/30 07:24:47;;;;;;;14.63;10.35;;;11.20;99.90;;;;;;5033943;28;20281;-63
2022/09/30 07:27:14;;;;;;;10.93;9.65;;;11.30;99.90;;;;;;5034205;28;20269;-62
2022/09/30 07:29:41;;;;;;;12.50;10.45;;;11.40;99.90;;;;;;5034032;28;20278;-63
2022/09/30 07:32:09;;;;;;;13.10;11.80;;;11.60;99.90;;;;;;5034239;28;20262;-63
2022/09/30 07:34:41;;;;;;;11.77;9.75;;;11.60;99.90;;;;;;5034021;28;20191;-63
2022/09/30 07:37:11;;;;;;;12.67;9.30;;;11.70;99.90;;;;;;5034076;28;20194;-63
2022/09/30 07:39:38;;;;;;;10.60;9.07;;;11.60;99.90;;;;;;5033961;28;20530;-63
2022/09/30 07:42:05;;;;;;;12.90;10.17;;;11.60;99.90;;;;;;5034016;28;20596;-63
2022/09/30 07:44:32;;;;;;;12.83;10.43;;;11.70;99.90;;;;;;5034105;28;20536;-63
2022/09/30 07:47:01;;;;;;;12.40;9.52;;;11.80;99.90;;;;;;5033801;28;20486;-62
2022/09/30 07:49:28;;;;;;;13.23;10.07;;;11.90;99.90;;;;;;4994400;28;1155503;-63
2022/09/30 07:51:58;;;;;;;9.73;8.20;;;12.10;99.90;;;;;;5034559;28;20195;-63
2022/09/30 07:54:27;;;;;;;10.27;8.70;;;12.20;99.90;;;;;;5034739;28;20461;-63
2022/09/30 07:56:56;;;;;;;11.03;8.50;;;12.20;99.50;;;;;;5034858;28;20434;-63
2022/09/30 07:59:23;;;;;;;11.80;8.87;;;12.20;99.60;;;;;;5034684;28;20478;-63
2022/09/30 08:01:50;;;;;;;9.50;8.20;;;12.30;99.30;;;;;;5034667;28;20868;-64
2022/09/30 08:04:19;;;;;;;10.00;7.63;;;12.50;99.30;;;;;;5034437;28;20941;-62
2022/09/30 08:06:48;;;;;;;9.43;7.63;;;12.70;99.20;;;;;;5034063;28;21070;-62
2022/09/30 08:09:19;;;;;;;9.10;7.60;;;12.80;98.80;;;;;;5034494;28;20932;-63
2022/09/30 08:11:47;;;;;;;6.57;5.70;;;12.80;98.30;;;;;;5034414;28;20442;-62
2022/09/30 08:14:15;;;;;;;8.20;6.70;;;12.80;98.10;;;;;;5034541;28;20444;-63
2022/09/30 08:16:42;;;;;;;8.50;6.30;;;12.80;97.30;;;;;;5033906;28;20487;-63
2022/09/30 08:19:14;;;;;;;8.00;7.00;;;12.80;96.80;;;;;;5033766;28;20438;-62
2022/09/30 08:21:42;;;;;;;13.20;10.73;;;12.70;97.00;;;;;;5034385;28;20438;-63
2022/09/30 08:24:09;;;;;;;7.80;6.80;;;12.80;97.60;;;;;;5034211;28;20541;-64
2022/09/30 08:26:38;;;;;;;7.77;6.97;;;13.00;98.30;;;;;;5034214;28;20489;-62
2022/09/30 08:29:05;;;;;;;10.30;7.33;;;13.20;98.60;;;;;;5034188;28;20469;-63
2022/09/30 08:31:33;;;;;;;7.50;6.40;;;13.50;98.00;;;;;;5034151;28;20444;-63
2022/09/30 08:34:01;;;;;;;7.77;6.97;;;13.80;98.10;;;;;;5034276;28;20844;-63
2022/09/30 08:36:29;;;;;;;7.70;7.00;;;14.10;98.00;;;;;;5033830;28;20789;-63
2022/09/30 08:38:57;;;;;;;7.30;6.47;;;14.40;97.40;;;;;;5034118;28;20921;-63
2022/09/30 08:41:44;;;;;;;8.47;7.07;;;14.50;95.90;;;;;;5033674;28;20480;-63
2022/09/30 08:44:25;;;;;;;7.63;6.30;;;14.60;95.10;;;;;;5033901;28;20445;-63
2022/09/30 08:46:57;;;;;;;6.50;5.73;;;15.00;95.20;;;;;;5033844;28;20474;-63
2022/09/30 08:49:43;;;;;;;5.73;5.10;;;15.60;94.50;;;;;;5033059;28;20465;-65
2022/09/30 08:52:14;;;;;;;5.93;5.33;;;15.80;91.70;;;;;;5033492;28;20438;-63
2022/09/30 08:54:47;;;;;;;6.70;5.33;;;15.90;90.50;;;;;;5033824;28;20491;-63
2022/09/30 08:57:16;;;;;;;8.53;5.17;;;15.80;90.10;;;;;;5033412;28;20978;-63
2022/09/30 08:59:46;;;;;;;7.50;4.37;;;15.60;89.40;;;;;;5033702;28;20437;-63
2022/09/30 09:02:20;;;;;;;6.50;5.23;;;15.40;88.10;;;;;;5033651;28;20484;-63
2022/09/30 09:04:51;;;;;;;7.07;5.67;;;15.60;93.80;;;;;;5033602;28;20947;-63
2022/09/30 09:07:35;;;;;;;4.67;3.90;;;16.60;92.10;;;;;;5033363;28;20486;-63
2022/09/30 09:10:13;;;;;;;5.63;4.13;;;17.30;89.80;;;;;;5033547;28;20441;-63
2022/09/30 09:12:53;;;;;;;4.90;4.40;;;17.60;83.90;;;;;;5033497;28;20475;-63
2022/09/30 09:15:35;;;;;;;4.70;3.90;;;17.40;79.40;;;;;;5033390;28;20435;-63
2022/09/30 09:18:41;;;;;;;7.50;4.20;;;17.00;79.50;;;;;;5033399;28;20919;-64
2022/09/30 09:21:27;;;;;;;5.83;4.43;;;16.60;80.00;;;;;;4972038;28;20434;-63
2022/09/30 09:23:59;;;;;;;5.47;4.23;;;16.30;80.50;;;;;;4971933;28;20474;-63
2022/09/30 09:26:30;;;;;;;5.70;4.40;;;16.10;82.40;;;;;;5011979;28;20474;-63
2022/09/30 09:29:09;;;;;;;5.67;4.63;;;16.40;86.90;;;;;;5033059;28;20900;-63
2022/09/30 09:31:36;;;;;;;3.87;3.33;;;16.80;84.30;;;;;;5033333;28;20839;-64
2022/09/30 09:34:10;;;;;;;4.60;3.53;;;17.10;82.90;;;;;;5033301;28;20436;-63
2022/09/30 09:36:48;;;;;;;5.47;3.50;;;17.50;83.20;;;;;;5033256;28;20459;-63
2022/09/30 09:39:37;;;;;;;3.87;3.37;;;18.20;82.00;;;;;;5033075;28;20495;-63
2022/09/30 09:42:21;;;;;;;5.73;4.77;;;19.50;76.20;;;;;;5033016;28;20437;-64
2022/09/30 09:44:55;;;;;;;5.17;3.70;;;19.80;68.80;;;;;;5033144;28;20836;-63
2022/09/30 09:47:22;;;;;;;4.50;3.93;;;19.60;68.80;;;;;;5032482;28;20526;-63
2022/09/30 09:49:55;;;;;;;4.53;2.57;;;19.20;68.00;;;;;;5033080;28;20438;-64
2022/09/30 09:52:47;;;;;;;4.37;2.90;;;18.70;68.30;;;;;;5033073;28;20444;-63
2022/09/30 09:55:22;;;;;;;3.70;2.90;;;18.20;68.10;;;;;;5033007;28;20469;-63
2022/09/30 09:58:06;;;;;;;3.80;3.17;;;17.70;67.80;;;;;;5032967;28;20840;-63
2022/09/30 10:03:22;;;;;;;4.03;3.20;;;16.90;71.20;;;;;;5032824;28;20428;-63
2022/09/30 10:06:01;;;;;;;5.10;3.30;;;16.50;72.90;;;;;;5032856;28;20457;-63
2022/09/30 10:08:30;;;;;;;3.80;3.10;;;16.20;73.70;;;;;;5032227;28;20549;-63
2022/09/30 10:10:59;;;;;;;4.03;2.77;;;15.90;75.50;;;;;;5032794;28;20851;-63
2022/09/30 10:13:30;;;;;;;4.20;3.60;;;15.70;77.50;;;;;;5032829;28;20450;-63
2022/09/30 10:16:00;;;;;;;3.50;2.73;;;15.50;78.90;;;;;;5032802;28;20439;-62
2022/09/30 10:18:31;;;;;;;5.90;3.03;;;15.40;80.30;;;;;;5032685;28;20496;-63
2022/09/30 10:21:01;;;;;;;5.20;3.27;;;15.30;80.70;;;;;;5032921;28;20447;-63
2022/09/30 10:23:31;;;;;;;6.73;3.57;;;15.20;81.30;;;;;;5032274;28;20443;-63
2022/09/30 10:26:02;;;;;;;5.20;3.17;;;15.40;84.40;;;;;;5032643;28;20459;-63
2022/09/30 10:28:31;;;;;;;5.17;3.00;;;15.60;84.60;;;;;;5032662;28;20498;-63
2022/09/30 10:31:03;;;;;;;3.67;2.63;;;16.10;86.30;;;;;;5032611;28;20441;-64
2022/09/30 10:33:35;;;;;;;2.93;2.20;;;16.50;86.10;;;;;;5032439;28;20909;-63
2022/09/30 10:36:09;;;;;;;3.50;2.90;;;16.90;82.50;;;;;;5032815;28;20833;-63
2022/09/30 10:38:44;;;;;;;3.70;2.47;;;17.00;79.10;;;;;;5032710;28;20472;-63
2022/09/30 10:41:11;;;;;;;3.50;2.80;;;17.20;79.50;;;;;;5034264;28;20961;-64
2022/09/30 10:43:43;;;;;;;3.57;2.40;;;17.50;80.40;;;;;;5036087;28;20445;-63
2022/09/30 10:46:22;;;;;;;3.80;2.23;;;17.60;76.40;;;;;;5036011;28;20445;-64
2022/09/30 10:48:50;;;;;;;3.03;2.50;;;17.70;76.00;;;;;;5035753;28;20487;-63
2022/09/30 10:51:32;;;;;;;3.07;2.07;;;17.90;75.60;;;;;;5036078;28;20469;-63
2022/09/30 10:54:00;;;;;;;2.60;2.10;;;18.30;75.30;;;;;;5036145;28;20445;-63
2022/09/30 10:56:37;;;;;;;2.93;1.93;;;19.10;74.10;;;;;;5036033;28;20440;-64
2022/09/30 10:59:08;;;;;;;2.23;1.30;;;20.20;69.00;;;;;;5035995;28;20544;-63
2022/09/30 11:01:39;;;;;;;3.07;1.40;;;21.40;69.60;;;;;;5035721;28;20441;-63
2022/09/30 11:04:15;;;;;;;3.80;2.13;;;21.70;58.30;;;;;;5035768;28;20437;-64
2022/09/30 11:06:44;;;;;;;2.60;1.53;;;21.30;54.10;;;;;;5035708;28;20441;-65
2022/09/30 11:09:17;;;;;;;2.20;1.30;;;20.80;55.00;;;;;;5035548;28;20524;-64
2022/09/30 11:11:47;;;;;;;2.40;1.43;;;20.20;54.30;;;;;;5035698;28;20433;-63
2022/09/30 11:14:26;;;;;;;1.90;1.13;;;19.70;55.00;;;;;;5035026;28;20470;-63
2022/09/30 11:17:06;;;;;;;2.10;1.30;;;19.30;56.60;;;;;;5035527;28;21012;-63
2022/09/30 11:19:39;;;;;;;2.40;1.60;;;18.70;57.30;;;;;;5035412;28;20445;-62
2022/09/30 11:22:22;;;;;;;3.00;1.90;;;18.20;58.90;;;;;;5035523;28;20434;-64
2022/09/30 11:24:53;;;;;;;2.50;1.40;;;17.80;60.70;;;;;;5035403;28;20452;-62
2022/09/30 11:27:31;;;;;;;2.20;1.47;;;17.60;62.80;;;;;;5035283;28;20485;-63
2022/09/30 11:30:08;;;;;;;2.40;1.50;;;17.40;62.90;;;;;;5035292;28;20907;-63
2022/09/30 11:32:49;;;;;;;3.03;2.00;;;17.30;66.00;;;;;;5035096;28;20835;-63
2022/09/30 11:35:43;;;;;;;2.60;1.77;;;17.30;66.20;;;;;;5034901;28;20449;-63
2022/09/30 11:38:23;;;;;;;2.50;1.67;;;17.40;66.80;;;;;;5035083;28;20503;-63
2022/09/30 11:40:58;;;;;;;2.97;2.27;;;17.70;69.60;;;;;;5035322;28;20518;-63
2022/09/30 11:43:33;;;;;;;5.60;1.63;;;18.00;69.00;;;;;;5034625;28;20444;-62
2022/09/30 11:46:27;;;;;;;4.07;2.40;;;18.40;71.00;;;;;;5034974;28;20902;-63
2022/09/30 11:49:19;;;;;;;3.40;2.50;;;19.00;68.60;;;;;;5034460;28;20489;-63
2022/09/30 11:51:57;;;;;;;2.77;1.90;;;19.40;65.00;;;;;;5033686;28;20504;-62
2022/09/30 11:54:42;;;;;;;5.60;2.10;;;19.00;59.80;;;;;;5034505;28;20441;-63
2022/09/30 11:57:16;;;;;;;2.27;1.43;;;18.50;60.50;;;;;;5034755;28;21027;-63
2022/09/30 11:59:47;;;;;;;4.37;1.87;;;18.10;62.40;;;;;;5034865;28;20492;-63
2022/09/30 12:02:25;;;;;;;2.50;1.80;;;17.80;64.60;;;;;;5034732;28;20456;-62
2022/09/30 12:04:59;;;;;;;3.63;1.90;;;17.60;65.00;;;;;;5034660;28;20762;-62
2022/09/30 12:07:40;;;;;;;2.60;1.90;;;17.40;65.90;;;;;;5034631;28;20943;-62
2022/09/30 12:10:19;;;;;;;3.10;1.37;;;17.10;67.40;;;;;;5034661;28;20475;-63
2022/09/30 12:12:48;;;;;;;3.20;1.83;;;16.90;66.40;;;;;;5034479;28;20449;-62
2022/09/30 12:15:18;;;;;;;3.00;2.13;;;16.70;67.30;;;;;;5034368;28;20449;-63
2022/09/30 12:17:50;;;;;;;2.50;1.97;;;16.60;68.70;;;;;;5034339;28;20439;-63
2022/09/30 12:20:25;;;;;;;2.57;1.70;;;16.40;68.80;;;;;;5034343;28;20444;-63
2022/09/30 12:22:57;;;;;;;2.83;1.70;;;16.30;70.70;;;;;;5034148;28;20440;-63
2022/09/30 12:25:31;;;;;;;3.40;2.43;;;16.20;71.70;;;;;;5034128;28;20455;-63
2022/09/30 12:30:15;;;;;;;2.77;2.03;;;16.10;72.50;;;;;;5034152;28;20487;-62
2022/09/30 12:30:57;;;;;;;3.13;2.43;;;16.10;71.60;;;;;;5033704;28;20432;-63
2022/09/30 12:33:47;;;;;;;3.80;2.20;;;16.10;72.20;;;;;;5034071;28;20522;-62
2022/09/30 12:36:53;;;;;;;2.90;2.20;;;16.10;74.50;;;;;;5032935;28;20436;-63
2022/09/30 12:39:53;;;;;;;3.63;2.30;;;16.10;74.80;;;;;;5033880;28;20443;-62
2022/09/30 12:42:41;;;;;;;4.00;2.27;;;15.90;73.40;;;;;;5033659;28;21002;-63
2022/09/30 12:45:46;;;;;;;3.93;2.70;;;16.00;74.50;;;;;;5034029;28;20485;-65
2022/09/30 12:48:16;;;;;;;3.77;2.27;;;16.00;73.90;;;;;;5003082;28;20569;-63
2022/09/30 12:50:49;;;;;;;2.60;1.90;;;15.90;73.90;;;;;;5033843;28;20438;-62
2022/09/30 12:53:22;;;;;;;2.93;1.97;;;15.80;72.30;;;;;;5033576;28;20453;-62
2022/09/30 12:55:50;;;;;;;17.77;2.60;;;15.80;72.30;;;;;;5033580;28;20842;-63
2022/09/30 12:58:22;;;;;;;2.33;1.40;;;15.90;72.20;;;;;;5033537;28;20835;-63
2022/09/30 13:01:02;;;;;;;2.77;2.20;;;16.00;72.70;;;;;;5033507;28;20943;-63
2022/09/30 13:03:49;;;;;;;3.67;2.47;;;16.10;72.20;;;;;;5033196;28;20522;-62
2022/09/30 13:06:18;;;;;;;3.20;2.40;;;16.10;71.50;;;;;;5033478;28;20452;-63
2022/09/30 13:09:17;;;;;;;3.37;2.30;;;16.10;71.40;;;;;;5033253;28;20521;-62
2022/09/30 13:11:45;;;;;;;3.47;2.70;;;16.20;72.20;;;;;;5033011;28;20777;-62
2022/09/30 13:14:33;;;;;;;2.80;2.40;;;16.30;70.20;;;;;;5033019;28;20498;-63